sensor_id;sensor_type;location;lat;lon;timestamp;P1;durP1;ratioP1;P2;durP2;ratioP2
20619;SDS011;10469;42.720;23.252;2022-11-11T00:00:12;40.40;;;24.65;;
20619;SDS011;10469;42.720;23.252;2022-11-11T00:02:38;40.83;;;24.88;;
20619;SDS011;10469;42.720;23.252;2022-11-11T00:05:03;34.83;;;23.58;;
20619;SDS011;10469;42.720;23.252;2022-11-11T00:07:29;33.67;;;23.23;;
20619;SDS011;10469;42.720;23.252;2022-11-11T00:09:55;37.47;;;24.20;;
20619;SDS011;10469;42.720;23.252;2022-11-11T00:12:20;35.03;;;22.95;;
20619;SDS011;10469;42.720;23.252;2022-11-11T00:14:46;41.60;;;24.98;;
20619;SDS011;10469;42.720;23.252;2022-11-11T00:17:11;41.50;;;24.30;;
20619;SDS011;10469;42.720;23.252;2022-11-11T00:19:56;40.25;;;25.35;;
20619;SDS011;10469;42.720;23.252;2022-11-11T00:22:40;38.55;;;24.85;;
20619;SDS011;10469;42.720;23.252;2022-11-11T00:25:24;46.53;;;25.45;;
20619;SDS011;10469;42.720;23.252;2022-11-11T00:27:50;38.42;;;24.73;;
20619;SDS011;10469;42.720;23.252;2022-11-11T00:30:15;46.13;;;25.98;;
20619;SDS011;10469;42.720;23.252;2022-11-11T00:32:41;38.63;;;25.95;;
20619;SDS011;10469;42.720;23.252;2022-11-11T00:35:06;41.88;;;25.92;;
20619;SDS011;10469;42.720;23.252;2022-11-11T00:37:51;38.67;;;24.90;;
20619;SDS011;10469;42.720;23.252;2022-11-11T00:40:16;41.28;;;26.55;;
20619;SDS011;10469;42.720;23.252;2022-11-11T00:42:42;38.35;;;25.50;;
20619;SDS011;10469;42.720;23.252;2022-11-11T00:45:07;40.03;;;25.58;;
20619;SDS011;10469;42.720;23.252;2022-11-11T00:47:33;40.72;;;26.45;;
20619;SDS011;10469;42.720;23.252;2022-11-11T00:50:21;44.28;;;27.67;;
20619;SDS011;10469;42.720;23.252;2022-11-11T00:53:11;38.08;;;25.08;;
20619;SDS011;10469;42.720;23.252;2022-11-11T00:55:38;39.50;;;25.95;;
20619;SDS011;10469;42.720;23.252;2022-11-11T00:58:05;42.97;;;27.40;;
20619;SDS011;10469;42.720;23.252;2022-11-11T01:00:30;45.70;;;27.27;;
20619;SDS011;10469;42.720;23.252;2022-11-11T01:02:56;41.85;;;27.63;;
20619;SDS011;10469;42.720;23.252;2022-11-11T01:05:23;41.13;;;28.13;;
20619;SDS011;10469;42.720;23.252;2022-11-11T01:07:49;44.50;;;27.42;;
20619;SDS011;10469;42.720;23.252;2022-11-11T01:10:15;49.53;;;28.92;;
20619;SDS011;10469;42.720;23.252;2022-11-11T01:13:01;50.38;;;29.42;;
20619;SDS011;10469;42.720;23.252;2022-11-11T01:15:36;48.60;;;28.83;;
20619;SDS011;10469;42.720;23.252;2022-11-11T01:18:02;48.33;;;28.63;;
20619;SDS011;10469;42.720;23.252;2022-11-11T01:20:27;49.22;;;31.40;;
20619;SDS011;10469;42.720;23.252;2022-11-11T01:22:53;45.85;;;29.95;;
20619;SDS011;10469;42.720;23.252;2022-11-11T01:25:18;46.47;;;30.27;;
20619;SDS011;10469;42.720;23.252;2022-11-11T01:27:44;50.75;;;29.65;;
20619;SDS011;10469;42.720;23.252;2022-11-11T01:30:09;51.45;;;31.70;;
20619;SDS011;10469;42.720;23.252;2022-11-11T01:32:38;52.58;;;31.27;;
20619;SDS011;10469;42.720;23.252;2022-11-11T01:35:04;49.70;;;31.17;;
20619;SDS011;10469;42.720;23.252;2022-11-11T01:37:31;48.28;;;31.48;;
20619;SDS011;10469;42.720;23.252;2022-11-11T01:39:57;50.97;;;31.27;;
20619;SDS011;10469;42.720;23.252;2022-11-11T01:42:23;53.83;;;31.58;;
20619;SDS011;10469;42.720;23.252;2022-11-11T01:44:48;51.35;;;31.70;;
20619;SDS011;10469;42.720;23.252;2022-11-11T01:47:13;51.05;;;31.25;;
20619;SDS011;10469;42.720;23.252;2022-11-11T01:54:45;50.47;;;31.30;;
20619;SDS011;10469;42.720;23.252;2022-11-11T01:59:57;50.60;;;32.92;;
20619;SDS011;10469;42.720;23.252;2022-11-11T02:02:40;49.15;;;32.17;;
20619;SDS011;10469;42.720;23.252;2022-11-11T02:05:10;55.92;;;32.65;;
20619;SDS011;10469;42.720;23.252;2022-11-11T02:07:55;55.58;;;34.17;;
20619;SDS011;10469;42.720;23.252;2022-11-11T02:10:23;49.90;;;31.77;;
20619;SDS011;10469;42.720;23.252;2022-11-11T02:12:51;51.00;;;32.13;;
20619;SDS011;10469;42.720;23.252;2022-11-11T02:15:35;55.35;;;33.20;;
20619;SDS011;10469;42.720;23.252;2022-11-11T02:18:02;51.75;;;33.17;;
20619;SDS011;10469;42.720;23.252;2022-11-11T02:20:29;55.97;;;34.00;;
20619;SDS011;10469;42.720;23.252;2022-11-11T02:25:44;59.25;;;35.00;;
20619;SDS011;10469;42.720;23.252;2022-11-11T02:28:12;58.65;;;34.45;;
20619;SDS011;10469;42.720;23.252;2022-11-11T02:30:39;57.40;;;34.25;;
20619;SDS011;10469;42.720;23.252;2022-11-11T02:33:05;59.28;;;34.50;;
20619;SDS011;10469;42.720;23.252;2022-11-11T02:35:32;58.10;;;35.83;;
20619;SDS011;10469;42.720;23.252;2022-11-11T02:38:03;59.42;;;34.92;;
20619;SDS011;10469;42.720;23.252;2022-11-11T02:40:37;53.33;;;34.38;;
20619;SDS011;10469;42.720;23.252;2022-11-11T02:43:25;56.75;;;34.90;;
20619;SDS011;10469;42.720;23.252;2022-11-11T02:45:51;59.00;;;35.78;;
20619;SDS011;10469;42.720;23.252;2022-11-11T02:48:16;56.95;;;35.20;;
20619;SDS011;10469;42.720;23.252;2022-11-11T02:50:42;55.65;;;35.50;;
20619;SDS011;10469;42.720;23.252;2022-11-11T02:53:07;55.92;;;33.53;;
20619;SDS011;10469;42.720;23.252;2022-11-11T02:55:33;59.22;;;34.30;;
20619;SDS011;10469;42.720;23.252;2022-11-11T02:57:58;54.17;;;32.95;;
20619;SDS011;10469;42.720;23.252;2022-11-11T03:00:25;51.63;;;32.03;;
20619;SDS011;10469;42.720;23.252;2022-11-11T03:02:50;57.42;;;32.03;;
20619;SDS011;10469;42.720;23.252;2022-11-11T03:05:15;58.13;;;32.72;;
20619;SDS011;10469;42.720;23.252;2022-11-11T03:07:41;48.60;;;31.75;;
20619;SDS011;10469;42.720;23.252;2022-11-11T03:10:06;51.92;;;32.60;;
20619;SDS011;10469;42.720;23.252;2022-11-11T03:12:32;47.13;;;31.25;;
20619;SDS011;10469;42.720;23.252;2022-11-11T03:14:57;60.20;;;32.75;;
20619;SDS011;10469;42.720;23.252;2022-11-11T03:17:23;52.35;;;31.80;;
20619;SDS011;10469;42.720;23.252;2022-11-11T03:20:05;49.08;;;31.20;;
20619;SDS011;10469;42.720;23.252;2022-11-11T03:25:24;56.55;;;33.30;;
20619;SDS011;10469;42.720;23.252;2022-11-11T03:30:31;55.15;;;33.58;;
20619;SDS011;10469;42.720;23.252;2022-11-11T03:32:58;49.88;;;32.10;;
20619;SDS011;10469;42.720;23.252;2022-11-11T03:35:24;49.78;;;32.35;;
20619;SDS011;10469;42.720;23.252;2022-11-11T03:37:49;49.95;;;32.85;;
20619;SDS011;10469;42.720;23.252;2022-11-11T03:40:33;44.58;;;29.00;;
20619;SDS011;10469;42.720;23.252;2022-11-11T03:42:58;51.15;;;31.85;;
20619;SDS011;10469;42.720;23.252;2022-11-11T03:45:24;48.67;;;32.72;;
20619;SDS011;10469;42.720;23.252;2022-11-11T03:47:49;52.58;;;32.65;;
20619;SDS011;10469;42.720;23.252;2022-11-11T03:50:15;55.08;;;33.83;;
20619;SDS011;10469;42.720;23.252;2022-11-11T03:52:40;53.80;;;33.80;;
20619;SDS011;10469;42.720;23.252;2022-11-11T03:55:09;50.50;;;33.25;;
20619;SDS011;10469;42.720;23.252;2022-11-11T03:57:39;54.38;;;33.60;;
20619;SDS011;10469;42.720;23.252;2022-11-11T04:00:05;54.78;;;33.15;;
20619;SDS011;10469;42.720;23.252;2022-11-11T04:02:32;56.90;;;34.53;;
20619;SDS011;10469;42.720;23.252;2022-11-11T04:05:15;56.95;;;34.90;;
20619;SDS011;10469;42.720;23.252;2022-11-11T04:07:59;59.40;;;35.10;;
20619;SDS011;10469;42.720;23.252;2022-11-11T04:10:47;58.22;;;36.13;;
20619;SDS011;10469;42.720;23.252;2022-11-11T04:13:12;67.10;;;35.90;;
20619;SDS011;10469;42.720;23.252;2022-11-11T04:15:57;55.08;;;36.10;;
20619;SDS011;10469;42.720;23.252;2022-11-11T04:18:31;52.00;;;33.15;;
20619;SDS011;10469;42.720;23.252;2022-11-11T04:21:15;53.67;;;34.30;;
20619;SDS011;10469;42.720;23.252;2022-11-11T04:23:59;51.72;;;33.58;;
20619;SDS011;10469;42.720;23.252;2022-11-11T04:26:24;50.63;;;33.13;;
20619;SDS011;10469;42.720;23.252;2022-11-11T04:28:50;50.03;;;31.95;;
20619;SDS011;10469;42.720;23.252;2022-11-11T04:31:34;57.55;;;33.28;;
20619;SDS011;10469;42.720;23.252;2022-11-11T04:33:59;51.17;;;32.42;;
20619;SDS011;10469;42.720;23.252;2022-11-11T04:36:25;49.50;;;31.10;;
20619;SDS011;10469;42.720;23.252;2022-11-11T04:38:50;51.17;;;33.10;;
20619;SDS011;10469;42.720;23.252;2022-11-11T04:41:34;55.20;;;32.20;;
20619;SDS011;10469;42.720;23.252;2022-11-11T04:44:00;51.28;;;32.35;;
20619;SDS011;10469;42.720;23.252;2022-11-11T04:46:44;49.33;;;31.52;;
20619;SDS011;10469;42.720;23.252;2022-11-11T04:49:09;51.13;;;32.88;;
20619;SDS011;10469;42.720;23.252;2022-11-11T04:51:35;47.97;;;32.13;;
20619;SDS011;10469;42.720;23.252;2022-11-11T04:54:22;53.67;;;32.33;;
20619;SDS011;10469;42.720;23.252;2022-11-11T04:56:47;50.97;;;31.08;;
20619;SDS011;10469;42.720;23.252;2022-11-11T04:59:14;53.55;;;33.05;;
20619;SDS011;10469;42.720;23.252;2022-11-11T05:01:40;59.83;;;31.77;;
20619;SDS011;10469;42.720;23.252;2022-11-11T05:04:24;48.78;;;30.67;;
20619;SDS011;10469;42.720;23.252;2022-11-11T05:06:49;53.97;;;30.63;;
20619;SDS011;10469;42.720;23.252;2022-11-11T05:09:34;46.22;;;29.35;;
20619;SDS011;10469;42.720;23.252;2022-11-11T05:12:00;45.13;;;29.23;;
20619;SDS011;10469;42.720;23.252;2022-11-11T05:14:26;44.97;;;26.95;;
20619;SDS011;10469;42.720;23.252;2022-11-11T05:17:10;44.03;;;27.25;;
20619;SDS011;10469;42.720;23.252;2022-11-11T05:19:54;42.85;;;26.52;;
20619;SDS011;10469;42.720;23.252;2022-11-11T05:22:38;46.10;;;25.73;;
20619;SDS011;10469;42.720;23.252;2022-11-11T05:25:05;39.45;;;25.55;;
20619;SDS011;10469;42.720;23.252;2022-11-11T05:27:50;41.22;;;24.65;;
20619;SDS011;10469;42.720;23.252;2022-11-11T05:30:20;38.00;;;23.83;;
20619;SDS011;10469;42.720;23.252;2022-11-11T05:32:46;39.90;;;24.40;;
20619;SDS011;10469;42.720;23.252;2022-11-11T05:35:12;37.42;;;25.00;;
20619;SDS011;10469;42.720;23.252;2022-11-11T05:37:38;37.15;;;24.42;;
20619;SDS011;10469;42.720;23.252;2022-11-11T05:40:04;32.97;;;22.73;;
20619;SDS011;10469;42.720;23.252;2022-11-11T05:42:31;40.13;;;23.92;;
20619;SDS011;10469;42.720;23.252;2022-11-11T05:44:56;37.53;;;23.05;;
20619;SDS011;10469;42.720;23.252;2022-11-11T05:47:22;38.03;;;24.23;;
20619;SDS011;10469;42.720;23.252;2022-11-11T05:49:47;40.00;;;24.40;;
20619;SDS011;10469;42.720;23.252;2022-11-11T05:52:14;42.45;;;24.50;;
20619;SDS011;10469;42.720;23.252;2022-11-11T05:54:41;38.00;;;25.30;;
20619;SDS011;10469;42.720;23.252;2022-11-11T05:57:07;38.45;;;24.65;;
20619;SDS011;10469;42.720;23.252;2022-11-11T05:59:33;39.05;;;23.83;;
20619;SDS011;10469;42.720;23.252;2022-11-11T06:01:59;39.78;;;23.88;;
20619;SDS011;10469;42.720;23.252;2022-11-11T06:04:24;37.38;;;24.83;;
20619;SDS011;10469;42.720;23.252;2022-11-11T06:06:50;38.90;;;25.60;;
20619;SDS011;10469;42.720;23.252;2022-11-11T06:09:15;41.88;;;24.90;;
20619;SDS011;10469;42.720;23.252;2022-11-11T06:11:41;39.00;;;25.85;;
20619;SDS011;10469;42.720;23.252;2022-11-11T06:14:06;42.78;;;25.15;;
20619;SDS011;10469;42.720;23.252;2022-11-11T06:16:32;44.85;;;25.50;;
20619;SDS011;10469;42.720;23.252;2022-11-11T06:18:57;42.63;;;25.77;;
20619;SDS011;10469;42.720;23.252;2022-11-11T06:21:24;42.85;;;25.50;;
20619;SDS011;10469;42.720;23.252;2022-11-11T06:23:50;47.05;;;25.95;;
20619;SDS011;10469;42.720;23.252;2022-11-11T06:26:15;43.75;;;25.83;;
20619;SDS011;10469;42.720;23.252;2022-11-11T06:28:42;42.28;;;26.10;;
20619;SDS011;10469;42.720;23.252;2022-11-11T06:31:10;42.25;;;25.77;;
20619;SDS011;10469;42.720;23.252;2022-11-11T06:33:37;42.30;;;25.25;;
20619;SDS011;10469;42.720;23.252;2022-11-11T06:36:03;42.85;;;24.35;;
20619;SDS011;10469;42.720;23.252;2022-11-11T06:38:30;37.95;;;24.70;;
20619;SDS011;10469;42.720;23.252;2022-11-11T06:40:56;43.05;;;25.17;;
20619;SDS011;10469;42.720;23.252;2022-11-11T06:43:22;39.45;;;24.52;;
20619;SDS011;10469;42.720;23.252;2022-11-11T06:45:51;46.60;;;24.55;;
20619;SDS011;10469;42.720;23.252;2022-11-11T06:48:18;40.25;;;25.35;;
20619;SDS011;10469;42.720;23.252;2022-11-11T06:50:44;41.45;;;23.80;;
20619;SDS011;10469;42.720;23.252;2022-11-11T06:53:10;42.33;;;24.77;;
20619;SDS011;10469;42.720;23.252;2022-11-11T06:55:37;46.25;;;26.90;;
20619;SDS011;10469;42.720;23.252;2022-11-11T06:58:07;41.30;;;25.63;;
20619;SDS011;10469;42.720;23.252;2022-11-11T07:00:34;40.05;;;24.13;;
20619;SDS011;10469;42.720;23.252;2022-11-11T07:03:03;40.92;;;24.42;;
20619;SDS011;10469;42.720;23.252;2022-11-11T07:05:29;41.10;;;23.85;;
20619;SDS011;10469;42.720;23.252;2022-11-11T07:07:55;38.03;;;23.83;;
20619;SDS011;10469;42.720;23.252;2022-11-11T07:10:20;40.22;;;23.27;;
20619;SDS011;10469;42.720;23.252;2022-11-11T07:12:46;41.10;;;22.75;;
20619;SDS011;10469;42.720;23.252;2022-11-11T07:15:12;36.00;;;22.52;;
20619;SDS011;10469;42.720;23.252;2022-11-11T07:17:37;43.50;;;23.52;;
20619;SDS011;10469;42.720;23.252;2022-11-11T07:20:03;41.88;;;23.60;;
20619;SDS011;10469;42.720;23.252;2022-11-11T07:22:29;49.85;;;24.77;;
20619;SDS011;10469;42.720;23.252;2022-11-11T07:24:54;36.88;;;23.02;;
20619;SDS011;10469;42.720;23.252;2022-11-11T07:27:19;43.13;;;24.50;;
20619;SDS011;10469;42.720;23.252;2022-11-11T07:29:45;35.75;;;22.55;;
20619;SDS011;10469;42.720;23.252;2022-11-11T07:32:12;39.45;;;23.48;;
20619;SDS011;10469;42.720;23.252;2022-11-11T07:34:38;41.38;;;21.88;;
20619;SDS011;10469;42.720;23.252;2022-11-11T07:37:04;37.47;;;21.63;;
20619;SDS011;10469;42.720;23.252;2022-11-11T07:39:29;33.97;;;21.98;;
20619;SDS011;10469;42.720;23.252;2022-11-11T07:41:55;33.95;;;22.13;;
20619;SDS011;10469;42.720;23.252;2022-11-11T07:44:20;36.75;;;21.63;;
20619;SDS011;10469;42.720;23.252;2022-11-11T07:46:45;37.75;;;21.88;;
20619;SDS011;10469;42.720;23.252;2022-11-11T07:49:11;33.92;;;20.95;;
20619;SDS011;10469;42.720;23.252;2022-11-11T07:51:36;31.45;;;19.90;;
20619;SDS011;10469;42.720;23.252;2022-11-11T07:54:03;34.90;;;20.30;;
20619;SDS011;10469;42.720;23.252;2022-11-11T07:56:28;36.38;;;20.83;;
20619;SDS011;10469;42.720;23.252;2022-11-11T07:58:54;40.30;;;21.13;;
20619;SDS011;10469;42.720;23.252;2022-11-11T08:01:19;36.78;;;19.60;;
20619;SDS011;10469;42.720;23.252;2022-11-11T08:03:45;38.22;;;20.75;;
20619;SDS011;10469;42.720;23.252;2022-11-11T08:06:16;38.40;;;20.23;;
20619;SDS011;10469;42.720;23.252;2022-11-11T08:08:43;39.50;;;22.17;;
20619;SDS011;10469;42.720;23.252;2022-11-11T08:11:08;38.35;;;21.13;;
20619;SDS011;10469;42.720;23.252;2022-11-11T08:13:33;38.28;;;21.15;;
20619;SDS011;10469;42.720;23.252;2022-11-11T08:16:06;34.85;;;20.58;;
20619;SDS011;10469;42.720;23.252;2022-11-11T08:18:35;31.20;;;19.88;;
20619;SDS011;10469;42.720;23.252;2022-11-11T08:21:02;32.00;;;19.48;;
20619;SDS011;10469;42.720;23.252;2022-11-11T08:23:28;36.90;;;19.38;;
20619;SDS011;10469;42.720;23.252;2022-11-11T08:25:58;32.10;;;19.02;;
20619;SDS011;10469;42.720;23.252;2022-11-11T08:28:24;31.48;;;19.83;;
20619;SDS011;10469;42.720;23.252;2022-11-11T08:30:49;32.05;;;18.58;;
20619;SDS011;10469;42.720;23.252;2022-11-11T08:33:15;29.65;;;17.95;;
20619;SDS011;10469;42.720;23.252;2022-11-11T08:35:40;35.63;;;18.33;;
20619;SDS011;10469;42.720;23.252;2022-11-11T08:38:05;30.25;;;18.83;;
20619;SDS011;10469;42.720;23.252;2022-11-11T08:40:31;46.22;;;23.45;;
20619;SDS011;10469;42.720;23.252;2022-11-11T08:42:57;29.05;;;16.92;;
20619;SDS011;10469;42.720;23.252;2022-11-11T08:45:23;24.10;;;15.82;;
20619;SDS011;10469;42.720;23.252;2022-11-11T08:47:49;26.48;;;15.43;;
20619;SDS011;10469;42.720;23.252;2022-11-11T08:50:15;26.52;;;16.55;;
20619;SDS011;10469;42.720;23.252;2022-11-11T08:52:44;27.45;;;15.50;;
20619;SDS011;10469;42.720;23.252;2022-11-11T08:55:14;20.92;;;13.90;;
20619;SDS011;10469;42.720;23.252;2022-11-11T08:57:39;23.50;;;14.30;;
20619;SDS011;10469;42.720;23.252;2022-11-11T09:00:05;27.38;;;15.77;;
20619;SDS011;10469;42.720;23.252;2022-11-11T09:02:32;24.42;;;15.45;;
20619;SDS011;10469;42.720;23.252;2022-11-11T09:04:57;30.70;;;14.65;;
20619;SDS011;10469;42.720;23.252;2022-11-11T09:07:23;34.65;;;22.77;;
20619;SDS011;10469;42.720;23.252;2022-11-11T09:09:48;22.40;;;13.93;;
20619;SDS011;10469;42.720;23.252;2022-11-11T09:12:14;17.50;;;11.60;;
20619;SDS011;10469;42.720;23.252;2022-11-11T09:14:40;21.90;;;12.75;;
20619;SDS011;10469;42.720;23.252;2022-11-11T09:17:05;22.48;;;12.45;;
20619;SDS011;10469;42.720;23.252;2022-11-11T09:19:31;23.15;;;11.43;;
20619;SDS011;10469;42.720;23.252;2022-11-11T09:21:56;15.65;;;10.77;;
20619;SDS011;10469;42.720;23.252;2022-11-11T09:24:22;18.13;;;12.40;;
20619;SDS011;10469;42.720;23.252;2022-11-11T09:26:47;18.88;;;12.95;;
20619;SDS011;10469;42.720;23.252;2022-11-11T09:29:14;19.42;;;12.20;;
20619;SDS011;10469;42.720;23.252;2022-11-11T09:31:39;18.40;;;12.50;;
20619;SDS011;10469;42.720;23.252;2022-11-11T09:34:05;14.18;;;10.40;;
20619;SDS011;10469;42.720;23.252;2022-11-11T09:36:33;21.90;;;13.80;;
20619;SDS011;10469;42.720;23.252;2022-11-11T09:38:59;16.80;;;11.38;;
20619;SDS011;10469;42.720;23.252;2022-11-11T09:44:35;17.33;;;11.85;;
20619;SDS011;10469;42.720;23.252;2022-11-11T09:50:03;20.55;;;11.38;;
20619;SDS011;10469;42.720;23.252;2022-11-11T09:52:36;18.58;;;10.13;;
20619;SDS011;10469;42.720;23.252;2022-11-11T09:55:16;13.48;;;9.57;;
20619;SDS011;10469;42.720;23.252;2022-11-11T09:57:55;15.63;;;10.80;;
20619;SDS011;10469;42.720;23.252;2022-11-11T10:00:27;16.95;;;10.88;;
20619;SDS011;10469;42.720;23.252;2022-11-11T10:02:58;16.80;;;10.50;;
20619;SDS011;10469;42.720;23.252;2022-11-11T10:08:41;15.15;;;10.73;;
20619;SDS011;10469;42.720;23.252;2022-11-11T10:11:20;19.40;;;11.05;;
20619;SDS011;10469;42.720;23.252;2022-11-11T10:13:52;20.67;;;11.25;;
20619;SDS011;10469;42.720;23.252;2022-11-11T10:19:28;15.93;;;10.23;;
20619;SDS011;10469;42.720;23.252;2022-11-11T10:21:59;15.25;;;10.27;;
20619;SDS011;10469;42.720;23.252;2022-11-11T10:24:49;18.77;;;9.77;;
20619;SDS011;10469;42.720;23.252;2022-11-11T10:27:24;13.23;;;10.40;;
20619;SDS011;10469;42.720;23.252;2022-11-11T10:29:50;12.50;;;9.65;;
20619;SDS011;10469;42.720;23.252;2022-11-11T10:32:26;14.50;;;10.43;;
20619;SDS011;10469;42.720;23.252;2022-11-11T10:34:54;12.27;;;9.75;;
20619;SDS011;10469;42.720;23.252;2022-11-11T10:37:36;13.77;;;9.48;;
20619;SDS011;10469;42.720;23.252;2022-11-11T10:40:27;12.77;;;8.68;;
20619;SDS011;10469;42.720;23.252;2022-11-11T10:42:56;10.63;;;8.98;;
20619;SDS011;10469;42.720;23.252;2022-11-11T10:45:23;13.57;;;8.77;;
20619;SDS011;10469;42.720;23.252;2022-11-11T10:55:42;15.38;;;8.70;;
20619;SDS011;10469;42.720;23.252;2022-11-11T11:00:54;11.48;;;9.10;;
20619;SDS011;10469;42.720;23.252;2022-11-11T11:06:01;15.77;;;8.05;;
20619;SDS011;10469;42.720;23.252;2022-11-11T11:08:34;10.55;;;7.55;;
20619;SDS011;10469;42.720;23.252;2022-11-11T11:11:29;14.15;;;8.20;;
20619;SDS011;10469;42.720;23.252;2022-11-11T11:14:01;10.60;;;7.70;;
20619;SDS011;10469;42.720;23.252;2022-11-11T11:16:33;11.10;;;6.72;;
20619;SDS011;10469;42.720;23.252;2022-11-11T11:19:18;12.25;;;7.38;;
20619;SDS011;10469;42.720;23.252;2022-11-11T11:21:58;10.38;;;6.57;;
20619;SDS011;10469;42.720;23.252;2022-11-11T11:24:29;11.50;;;6.45;;
20619;SDS011;10469;42.720;23.252;2022-11-11T11:26:57;8.95;;;7.28;;
20619;SDS011;10469;42.720;23.252;2022-11-11T11:32:16;13.27;;;7.22;;
20619;SDS011;10469;42.720;23.252;2022-11-11T11:34:44;10.25;;;6.35;;
20619;SDS011;10469;42.720;23.252;2022-11-11T11:37:12;21.90;;;7.45;;
20619;SDS011;10469;42.720;23.252;2022-11-11T11:39:38;13.15;;;7.80;;
20619;SDS011;10469;42.720;23.252;2022-11-11T11:42:05;10.98;;;7.55;;
20619;SDS011;10469;42.720;23.252;2022-11-11T11:47:09;11.23;;;6.65;;
20619;SDS011;10469;42.720;23.252;2022-11-11T11:52:44;9.10;;;6.40;;
20619;SDS011;10469;42.720;23.252;2022-11-11T11:55:31;16.80;;;7.18;;
20619;SDS011;10469;42.720;23.252;2022-11-11T11:58:23;9.57;;;7.13;;
20619;SDS011;10469;42.720;23.252;2022-11-11T12:01:00;11.27;;;6.45;;
20619;SDS011;10469;42.720;23.252;2022-11-11T12:06:25;10.10;;;5.82;;
20619;SDS011;10469;42.720;23.252;2022-11-11T12:12:03;7.93;;;5.38;;
20619;SDS011;10469;42.720;23.252;2022-11-11T12:18:06;14.15;;;6.00;;
20619;SDS011;10469;42.720;23.252;2022-11-11T12:20:17;8.60;;;6.38;;
20619;SDS011;10469;42.720;23.252;2022-11-11T12:22:53;11.10;;;5.97;;
20619;SDS011;10469;42.720;23.252;2022-11-11T12:30:48;14.05;;;7.15;;
20619;SDS011;10469;42.720;23.252;2022-11-11T12:36:11;11.02;;;6.38;;
20619;SDS011;10469;42.720;23.252;2022-11-11T12:38:52;9.40;;;6.55;;
20619;SDS011;10469;42.720;23.252;2022-11-11T12:41:47;10.48;;;7.38;;
20619;SDS011;10469;42.720;23.252;2022-11-11T12:44:29;14.82;;;6.95;;
20619;SDS011;10469;42.720;23.252;2022-11-11T12:52:29;20.52;;;7.43;;
20619;SDS011;10469;42.720;23.252;2022-11-11T12:57:50;12.00;;;6.57;;
20619;SDS011;10469;42.720;23.252;2022-11-11T13:04:10;9.57;;;6.20;;
20619;SDS011;10469;42.720;23.252;2022-11-11T13:07:04;11.55;;;7.38;;
20619;SDS011;10469;42.720;23.252;2022-11-11T13:09:59;9.23;;;6.55;;
20619;SDS011;10469;42.720;23.252;2022-11-11T13:12:34;8.25;;;6.72;;
20619;SDS011;10469;42.720;23.252;2022-11-11T13:15:21;9.77;;;6.88;;
20619;SDS011;10469;42.720;23.252;2022-11-11T13:17:49;15.85;;;7.90;;
20619;SDS011;10469;42.720;23.252;2022-11-11T13:22:44;12.25;;;7.30;;
20619;SDS011;10469;42.720;23.252;2022-11-11T13:25:15;12.07;;;7.97;;
20619;SDS011;10469;42.720;23.252;2022-11-11T13:27:54;11.80;;;7.15;;
20619;SDS011;10469;42.720;23.252;2022-11-11T13:38:30;16.15;;;8.82;;
20619;SDS011;10469;42.720;23.252;2022-11-11T13:40:59;14.52;;;8.00;;
20619;SDS011;10469;42.720;23.252;2022-11-11T13:43:34;14.80;;;8.60;;
20619;SDS011;10469;42.720;23.252;2022-11-11T13:46:06;16.00;;;9.55;;
20619;SDS011;10469;42.720;23.252;2022-11-11T13:48:54;14.98;;;8.05;;
20619;SDS011;10469;42.720;23.252;2022-11-11T13:51:25;15.73;;;8.35;;
20619;SDS011;10469;42.720;23.252;2022-11-11T13:53:51;16.45;;;7.57;;
20619;SDS011;10469;42.720;23.252;2022-11-11T13:58:55;13.23;;;7.80;;
20619;SDS011;10469;42.720;23.252;2022-11-11T14:01:22;15.65;;;9.20;;
20619;SDS011;10469;42.720;23.252;2022-11-11T14:03:58;13.18;;;8.82;;
20619;SDS011;10469;42.720;23.252;2022-11-11T14:08:59;16.33;;;8.95;;
20619;SDS011;10469;42.720;23.252;2022-11-11T14:13:51;25.20;;;12.25;;
20619;SDS011;10469;42.720;23.252;2022-11-11T14:21:45;23.40;;;13.93;;
20619;SDS011;10469;42.720;23.252;2022-11-11T14:24:20;21.70;;;13.25;;
20619;SDS011;10469;42.720;23.252;2022-11-11T14:26:58;23.33;;;12.13;;
20619;SDS011;10469;42.720;23.252;2022-11-11T14:29:27;21.70;;;12.23;;
20619;SDS011;10469;42.720;23.252;2022-11-11T14:32:07;19.85;;;12.27;;
20619;SDS011;10469;42.720;23.252;2022-11-11T14:39:54;18.95;;;10.73;;
20619;SDS011;10469;42.720;23.252;2022-11-11T14:44:58;17.25;;;11.65;;
20619;SDS011;10469;42.720;23.252;2022-11-11T14:47:30;15.45;;;10.38;;
20619;SDS011;10469;42.720;23.252;2022-11-11T14:49:57;18.15;;;12.02;;
20619;SDS011;10469;42.720;23.252;2022-11-11T14:52:39;18.83;;;12.30;;
20619;SDS011;10469;42.720;23.252;2022-11-11T14:55:24;16.05;;;11.43;;
20619;SDS011;10469;42.720;23.252;2022-11-11T14:57:57;17.42;;;10.75;;
20619;SDS011;10469;42.720;23.252;2022-11-11T15:00:42;22.90;;;14.40;;
20619;SDS011;10469;42.720;23.252;2022-11-11T15:03:14;19.42;;;11.15;;
20619;SDS011;10469;42.720;23.252;2022-11-11T15:05:49;23.25;;;13.63;;
20619;SDS011;10469;42.720;23.252;2022-11-11T15:13:20;18.88;;;11.55;;
20619;SDS011;10469;42.720;23.252;2022-11-11T15:15:53;18.98;;;11.95;;
20619;SDS011;10469;42.720;23.252;2022-11-11T15:21:47;18.95;;;13.25;;
20619;SDS011;10469;42.720;23.252;2022-11-11T15:26:52;21.08;;;13.35;;
20619;SDS011;10469;42.720;23.252;2022-11-11T15:35:08;18.63;;;12.98;;
20619;SDS011;10469;42.720;23.252;2022-11-11T15:38:12;29.40;;;21.77;;
20619;SDS011;10469;42.720;23.252;2022-11-11T15:40:54;24.75;;;15.35;;
20619;SDS011;10469;42.720;23.252;2022-11-11T15:43:29;20.10;;;14.85;;
20619;SDS011;10469;42.720;23.252;2022-11-11T15:45:59;20.55;;;14.38;;
20619;SDS011;10469;42.720;23.252;2022-11-11T15:48:26;22.98;;;15.32;;
20619;SDS011;10469;42.720;23.252;2022-11-11T15:51:14;32.65;;;14.73;;
20619;SDS011;10469;42.720;23.252;2022-11-11T15:54:14;34.65;;;16.77;;
20619;SDS011;10469;42.720;23.252;2022-11-11T15:59:22;27.48;;;16.67;;
20619;SDS011;10469;42.720;23.252;2022-11-11T16:01:54;32.30;;;16.65;;
20619;SDS011;10469;42.720;23.252;2022-11-11T16:04:21;34.50;;;18.08;;
20619;SDS011;10469;42.720;23.252;2022-11-11T16:06:49;33.03;;;17.92;;
20619;SDS011;10469;42.720;23.252;2022-11-11T16:09:16;29.13;;;16.95;;
20619;SDS011;10469;42.720;23.252;2022-11-11T16:11:46;25.52;;;16.48;;
20619;SDS011;10469;42.720;23.252;2022-11-11T16:14:36;26.45;;;15.85;;
20619;SDS011;10469;42.720;23.252;2022-11-11T16:17:05;26.15;;;17.52;;
20619;SDS011;10469;42.720;23.252;2022-11-11T16:19:35;25.90;;;16.30;;
20619;SDS011;10469;42.720;23.252;2022-11-11T16:24:35;29.45;;;15.88;;
20619;SDS011;10469;42.720;23.252;2022-11-11T16:27:05;28.85;;;16.45;;
20619;SDS011;10469;42.720;23.252;2022-11-11T16:29:35;24.63;;;16.38;;
20619;SDS011;10469;42.720;23.252;2022-11-11T16:34:47;26.83;;;16.23;;
20619;SDS011;10469;42.720;23.252;2022-11-11T16:37:14;21.48;;;15.43;;
20619;SDS011;10469;42.720;23.252;2022-11-11T16:39:41;23.88;;;15.80;;
20619;SDS011;10469;42.720;23.252;2022-11-11T16:50:16;26.70;;;14.95;;
20619;SDS011;10469;42.720;23.252;2022-11-11T16:57:47;24.85;;;16.02;;